Kirk Sandall, United Kingdom
Current Conditions -  °F | °C
As of 2:50 PM on Monday 24 Nov 2014 (Local Time) from EGCN Reporting Station
Clear Clear  
Wind Chill: 46°   Ceiling: Unl
Heat Index: 48°   Visibility: 6mi
Dew Point: 43°   Wind: 6mph
Humidity: 82%   Direction: 260°W
Pressure: 30.33"   Gusts: NA
Location:  53.56°N, 1.07°W
Report Text: EGCN 241450Z 26005KT CAVOK 09/06 Q1027
Loading
Personal Weather Stations






























Interactive Weather Map New forecast layout! Learn more

10-Day Weather Forecast

Advertisements
Track Severe Weather on mobile